Time;durP1;ratioP1;P1;durP2;ratioP2;P2;SDS_P1;SDS_P2;PMS_P1;PMS_P2;Temp;Humidity;BMP_temperature;BMP_pressure;BME280_temperature;BME280_humidity;BME280_pressure;Samples;Min_cycle;Max_cycle;Signal;HPM_P1;HPM_P2
2022/03/13 00:00:15;;;;;;;15.65;10.20;;;7.10;99.90;;;;;;5044796;28;20758;-60
2022/03/13 00:02:40;;;;;;;13.70;10.18;;;7.10;99.90;;;;;;5042169;28;20051;-60
2022/03/13 00:05:12;;;;;;;14.80;10.57;;;7.00;99.90;;;;;;5041092;28;20044;-60
2022/03/13 00:07:39;;;;;;;13.18;10.45;;;7.00;99.90;;;;;;5049589;28;20064;-61
2022/03/13 00:10:06;;;;;;;16.88;11.15;;;7.00;99.90;;;;;;5041563;28;20055;-61
2022/03/13 00:12:32;;;;;;;16.13;9.55;;;7.00;99.90;;;;;;5042175;28;20033;-60
2022/03/13 00:15:09;;;;;;;12.15;9.93;;;6.20;99.90;;;;;;5050117;28;20049;-61
2022/03/13 00:17:35;;;;;;;15.10;10.00;;;7.00;99.90;;;;;;5037958;28;20053;-61
2022/03/13 00:20:04;;;;;;;17.02;11.68;;;7.00;99.90;;;;;;5055454;28;20041;-61
2022/03/13 00:22:31;;;;;;;11.45;8.98;;;7.00;99.90;;;;;;5057090;28;20048;-61
2022/03/13 00:25:00;;;;;;;14.07;10.07;;;7.00;99.90;;;;;;5056778;28;20051;-61
2022/03/13 00:27:26;;;;;;;13.38;10.75;;;7.00;99.90;;;;;;5056421;28;20044;-60
2022/03/13 00:29:52;;;;;;;14.23;9.70;;;6.90;99.90;;;;;;5056391;28;20153;-61
2022/03/13 00:32:18;;;;;;;15.07;11.32;;;6.90;99.90;;;;;;5055487;28;20064;-61
2022/03/13 00:34:44;;;;;;;14.65;9.93;;;6.90;99.90;;;;;;5056780;28;20048;-60
2022/03/13 00:37:10;;;;;;;16.05;11.68;;;6.90;99.90;;;;;;5056224;28;20060;-61
2022/03/13 00:39:39;;;;;;;15.20;10.60;;;6.90;99.90;;;;;;5056005;28;20045;-60
2022/03/13 00:42:05;;;;;;;14.02;10.45;;;6.80;99.90;;;;;;5056881;28;20080;-60
2022/03/13 00:44:31;;;;;;;17.73;11.45;;;6.80;99.90;;;;;;5056368;28;20032;-61
2022/03/13 00:46:56;;;;;;;13.80;9.98;;;6.80;99.90;;;;;;5056292;28;20105;-61
2022/03/13 00:49:22;;;;;;;18.20;11.50;;;6.70;99.90;;;;;;5056808;28;20602;-61
2022/03/13 00:51:47;;;;;;;16.80;10.77;;;6.40;99.90;;;;;;5056598;28;20080;-61
2022/03/13 00:54:13;;;;;;;15.13;10.35;;;6.50;99.90;;;;;;5055909;28;20128;-61
2022/03/13 00:56:38;;;;;;;17.13;10.38;;;6.40;99.90;;;;;;5039656;28;20052;-61
2022/03/13 00:59:06;;;;;;;15.75;10.75;;;6.40;99.90;;;;;;5056719;28;20072;-61
2022/03/13 01:01:32;;;;;;;16.38;11.25;;;6.40;99.90;;;;;;5026457;28;20130;-61
2022/03/13 01:03:58;;;;;;;17.58;10.60;;;6.30;99.90;;;;;;5035755;28;20071;-60
2022/03/13 01:06:23;;;;;;;15.10;10.15;;;6.30;99.90;;;;;;5055477;28;20108;-61
2022/03/13 01:08:51;;;;;;;16.63;10.70;;;6.30;99.90;;;;;;5055343;28;20051;-60
2022/03/13 01:11:18;;;;;;;12.48;10.70;;;6.40;99.90;;;;;;5052315;28;20049;-60
2022/03/13 01:13:45;;;;;;;18.00;10.93;;;6.40;99.90;;;;;;5053405;28;20036;-60
2022/03/13 01:16:13;;;;;;;13.88;9.98;;;6.40;99.90;;;;;;5049159;28;20051;-61
2022/03/13 01:18:43;;;;;;;15.82;11.10;;;6.50;99.90;;;;;;5055792;28;20496;-61
2022/03/13 01:21:10;;;;;;;16.67;10.77;;;6.50;99.90;;;;;;5055929;28;20048;-60
2022/03/13 01:23:36;;;;;;;13.70;10.18;;;6.50;99.90;;;;;;5055529;28;20044;-61
2022/03/13 01:26:37;;;;;;;13.35;10.45;;;6.50;99.90;;;;;;5055622;28;20052;-60
2022/03/13 01:29:05;;;;;;;13.57;9.68;;;6.50;99.90;;;;;;5037801;28;20543;-61
2022/03/13 01:31:33;;;;;;;18.30;11.77;;;6.60;99.90;;;;;;5056279;28;20053;-61
2022/03/13 01:34:01;;;;;;;19.35;12.93;;;6.60;99.90;;;;;;5035806;28;20061;-60
2022/03/13 01:36:27;;;;;;;15.45;12.48;;;6.60;99.90;;;;;;5035422;28;20052;-60
2022/03/13 01:38:55;;;;;;;19.05;12.85;;;6.60;99.90;;;;;;5035603;28;20500;-60
2022/03/13 01:41:23;;;;;;;14.75;10.88;;;6.60;99.90;;;;;;5035762;28;20060;-60
2022/03/13 01:43:49;;;;;;;16.38;10.32;;;6.70;99.90;;;;;;5018100;28;20049;-61
2022/03/13 01:46:15;;;;;;;16.55;11.38;;;6.70;99.90;;;;;;5035891;28;20443;-61
2022/03/13 01:48:53;;;;;;;18.92;10.88;;;6.70;99.90;;;;;;5036103;28;20049;-60
2022/03/13 01:51:23;;;;;;;15.68;10.63;;;6.70;99.90;;;;;;5034949;28;21051;-60
2022/03/13 01:53:54;;;;;;;17.25;11.05;;;6.80;99.90;;;;;;5035478;28;20160;-61
2022/03/13 01:56:21;;;;;;;19.92;11.68;;;6.70;99.90;;;;;;5035561;28;20049;-61
2022/03/13 01:58:49;;;;;;;18.20;11.07;;;6.80;99.90;;;;;;5034983;28;20048;-61
2022/03/13 02:01:16;;;;;;;16.30;11.43;;;6.80;99.90;;;;;;5035098;28;20057;-61
2022/03/13 02:03:42;;;;;;;14.75;11.02;;;6.90;99.90;;;;;;5017339;28;20694;-61
2022/03/13 02:06:07;;;;;;;21.08;11.63;;;6.90;99.90;;;;;;5035259;28;20049;-60
2022/03/13 02:08:38;;;;;;;18.65;12.32;;;6.90;99.90;;;;;;5010167;28;20072;-61
2022/03/13 02:11:04;;;;;;;15.90;11.73;;;6.90;99.90;;;;;;5034111;28;20040;-61
2022/03/13 02:13:34;;;;;;;16.20;11.40;;;7.00;99.90;;;;;;5016136;28;20056;-61
2022/03/13 02:15:59;;;;;;;17.75;11.50;;;7.00;99.90;;;;;;5034256;28;20045;-61
2022/03/13 02:18:25;;;;;;;16.00;11.52;;;7.00;99.90;;;;;;5016365;28;20459;-60
2022/03/13 02:20:50;;;;;;;18.35;11.10;;;7.00;99.90;;;;;;5034691;28;20045;-60
2022/03/13 02:23:20;;;;;;;18.42;12.00;;;7.10;99.90;;;;;;5034566;28;20064;-61
2022/03/13 02:25:51;;;;;;;15.45;11.25;;;7.10;99.90;;;;;;5034505;28;20060;-61
2022/03/13 02:28:24;;;;;;;16.60;11.68;;;7.00;99.90;;;;;;5034994;28;20491;-60
2022/03/13 02:30:50;;;;;;;;;;;7.10;99.90;;;;;;5035507;28;20045;-61
2022/03/13 02:33:20;;;;;;;19.73;12.55;;;7.00;99.90;;;;;;5047798;28;20023;-61
2022/03/13 02:35:54;;;;;;;15.82;11.02;;;7.00;99.90;;;;;;5055174;28;20084;-61
2022/03/13 02:38:19;;;;;;;19.70;13.32;;;7.00;99.90;;;;;;5036281;28;20125;-60
2022/03/13 02:40:45;;;;;;;14.93;11.93;;;6.70;99.90;;;;;;5054533;28;20040;-61
2022/03/13 02:43:11;;;;;;;16.00;10.98;;;7.00;99.90;;;;;;5054737;28;20864;-61
2022/03/13 02:45:38;;;;;;;19.77;11.80;;;7.00;99.90;;;;;;5055004;28;20055;-61
2022/03/13 02:48:06;;;;;;;19.27;12.15;;;7.00;99.90;;;;;;5054550;28;20048;-60
2022/03/13 02:50:32;;;;;;;19.85;11.18;;;6.90;99.90;;;;;;5054845;28;20790;-60
2022/03/13 02:52:58;;;;;;;18.33;12.30;;;6.90;99.90;;;;;;5047169;28;20048;-59
2022/03/13 02:55:24;;;;;;;19.02;12.55;;;6.90;99.90;;;;;;5036706;28;20540;-60
2022/03/13 02:57:50;;;;;;;17.55;11.70;;;6.90;99.90;;;;;;5055199;28;20044;-59
2022/03/13 03:00:17;;;;;;;20.70;12.48;;;6.90;99.90;;;;;;5054488;28;20674;-60
2022/03/13 03:02:43;;;;;;;18.48;12.68;;;6.90;99.90;;;;;;5033625;28;20063;-60
2022/03/13 03:05:10;;;;;;;14.82;11.40;;;6.90;99.90;;;;;;5034736;28;20049;-59
2022/03/13 03:07:36;;;;;;;16.80;12.82;;;6.90;99.90;;;;;;5034193;28;20483;-59
2022/03/13 03:10:03;;;;;;;16.88;11.95;;;6.90;99.90;;;;;;5041866;28;20182;-61
2022/03/13 03:12:29;;;;;;;18.58;11.68;;;6.90;99.90;;;;;;5054243;28;20080;-61
2022/03/13 03:14:55;;;;;;;14.35;11.38;;;6.90;99.90;;;;;;5054210;28;20121;-60
2022/03/13 03:17:20;;;;;;;15.50;10.77;;;6.90;99.90;;;;;;5054330;28;20041;-61
2022/03/13 03:19:46;;;;;;;16.52;11.70;;;6.90;99.90;;;;;;5054626;28;20037;-61
2022/03/13 03:22:13;;;;;;;19.73;11.75;;;6.90;99.90;;;;;;5054066;28;20061;-61
2022/03/13 03:24:39;;;;;;;19.85;12.60;;;6.90;99.90;;;;;;5058258;28;20040;-61
2022/03/13 03:27:05;;;;;;;18.45;10.85;;;6.90;99.90;;;;;;5058420;28;20055;-59
2022/03/13 03:29:30;;;;;;;14.13;11.55;;;6.90;99.90;;;;;;5057794;28;20049;-61
2022/03/13 03:31:57;;;;;;;18.60;12.35;;;6.90;99.90;;;;;;5039895;28;20056;-59
2022/03/13 03:34:26;;;;;;;18.20;12.88;;;6.90;99.90;;;;;;5048520;28;20048;-61
2022/03/13 03:36:54;;;;;;;20.40;12.40;;;6.90;99.90;;;;;;5034224;28;20077;-61
2022/03/13 03:39:21;;;;;;;15.68;12.05;;;6.80;99.90;;;;;;5049828;28;20056;-61
2022/03/13 03:41:49;;;;;;;16.95;12.40;;;6.80;99.90;;;;;;5057771;28;20055;-61
2022/03/13 03:44:15;;;;;;;19.27;12.73;;;6.80;99.90;;;;;;5056814;28;20507;-61
2022/03/13 03:46:42;;;;;;;19.88;12.10;;;6.70;99.90;;;;;;5040139;28;20048;-61
2022/03/13 03:49:08;;;;;;;18.13;12.52;;;6.70;99.90;;;;;;5057520;28;20901;-61
2022/03/13 03:51:35;;;;;;;16.35;11.75;;;6.70;99.90;;;;;;5025916;28;20838;-61
2022/03/13 03:54:02;;;;;;;19.35;11.93;;;6.70;99.90;;;;;;5050115;28;20051;-60
2022/03/13 03:56:28;;;;;;;17.65;11.98;;;6.60;99.90;;;;;;5032837;28;20080;-60
2022/03/13 03:58:54;;;;;;;16.40;12.23;;;6.60;99.90;;;;;;5019991;28;20600;-60
2022/03/13 04:01:20;;;;;;;15.32;11.10;;;6.60;99.90;;;;;;5054757;28;20753;-60
2022/03/13 04:03:45;;;;;;;16.23;11.85;;;6.50;99.90;;;;;;5054377;28;20071;-60
2022/03/13 04:06:11;;;;;;;18.88;12.25;;;6.50;99.90;;;;;;5054839;28;20044;-60
2022/03/13 04:08:37;;;;;;;16.80;11.68;;;6.50;99.90;;;;;;5054131;28;20484;-60
2022/03/13 04:11:02;;;;;;;15.43;11.95;;;6.50;99.90;;;;;;5054755;28;20063;-61
2022/03/13 04:13:28;;;;;;;18.90;11.93;;;6.40;99.90;;;;;;5054731;28;20102;-61
2022/03/13 04:15:55;;;;;;;18.10;11.20;;;6.30;99.90;;;;;;5054336;28;20055;-61
2022/03/13 04:18:21;;;;;;;20.40;12.55;;;6.30;99.90;;;;;;5053274;28;20376;-61
2022/03/13 04:20:47;;;;;;;17.38;11.57;;;6.20;99.90;;;;;;5054573;28;20523;-61
2022/03/13 04:23:12;;;;;;;20.73;12.85;;;6.10;99.90;;;;;;5054492;28;20050;-61
2022/03/13 04:25:38;;;;;;;19.13;12.57;;;6.00;99.90;;;;;;5032955;28;20087;-61
2022/03/13 04:28:04;;;;;;;21.25;13.90;;;5.80;99.90;;;;;;5034282;28;20037;-61
2022/03/13 04:30:31;;;;;;;19.30;13.57;;;5.70;99.90;;;;;;5034197;28;20083;-62
2022/03/13 04:32:57;;;;;;;19.95;13.23;;;5.50;99.90;;;;;;5033695;28;20547;-59
2022/03/13 04:35:24;;;;;;;19.48;14.10;;;5.30;99.90;;;;;;5033818;28;20055;-60
2022/03/13 04:37:50;;;;;;;15.38;12.20;;;5.10;99.90;;;;;;5034211;28;20049;-60
2022/03/13 04:40:15;;;;;;;21.77;13.18;;;5.00;99.90;;;;;;5035806;28;20049;-59
2022/03/13 04:42:41;;;;;;;19.90;11.65;;;5.00;99.90;;;;;;5042484;28;20087;-60
2022/03/13 04:45:07;;;;;;;19.42;12.75;;;4.90;99.90;;;;;;5055900;28;20051;-61
2022/03/13 04:47:34;;;;;;;17.40;12.38;;;4.80;99.90;;;;;;5055663;28;20099;-61
2022/03/13 04:50:00;;;;;;;17.42;12.23;;;4.80;99.90;;;;;;5056401;28;20040;-59
2022/03/13 04:52:29;;;;;;;16.73;13.27;;;4.80;99.90;;;;;;5055394;28;21052;-61
2022/03/13 04:54:55;;;;;;;16.75;12.68;;;4.70;99.90;;;;;;5057056;28;20045;-61
2022/03/13 04:57:20;;;;;;;19.98;12.38;;;4.70;99.90;;;;;;5056523;28;20098;-61
2022/03/13 04:59:46;;;;;;;20.48;12.77;;;4.60;99.90;;;;;;5034192;28;20857;-62
2022/03/13 05:02:12;;;;;;;17.90;11.98;;;4.60;99.90;;;;;;5036115;28;20045;-61
2022/03/13 05:04:38;;;;;;;17.83;13.02;;;4.60;99.90;;;;;;5036205;28;20378;-61
2022/03/13 05:07:06;;;;;;;14.90;11.82;;;4.60;99.90;;;;;;5018675;28;20065;-60
2022/03/13 05:09:35;;;;;;;17.15;13.10;;;4.70;99.90;;;;;;5036889;28;20052;-61
2022/03/13 05:12:04;;;;;;;21.77;10.90;;;4.70;99.90;;;;;;5037101;28;20084;-60
2022/03/13 05:14:30;;;;;;;20.33;12.88;;;4.60;99.90;;;;;;5035722;28;20060;-62
2022/03/13 05:16:56;;;;;;;15.65;11.88;;;4.60;99.90;;;;;;5035751;28;20849;-60
2022/03/13 05:19:21;;;;;;;14.40;9.20;;;4.60;99.90;;;;;;5017736;28;20084;-61
2022/03/13 05:21:47;;;;;;;15.93;10.65;;;4.60;99.90;;;;;;5035368;28;20675;-60
2022/03/13 05:24:12;;;;;;;17.40;10.13;;;4.60;99.90;;;;;;5036204;28;20059;-61
2022/03/13 05:26:38;;;;;;;14.52;10.38;;;4.70;99.90;;;;;;5037538;28;20864;-61
2022/03/13 05:29:03;;;;;;;18.17;11.95;;;4.80;99.90;;;;;;5032653;28;20048;-61
2022/03/13 05:31:29;;;;;;;14.18;11.73;;;4.80;99.90;;;;;;5054803;28;20044;-61
2022/03/13 05:33:57;;;;;;;18.08;11.00;;;4.80;99.90;;;;;;5055031;28;20056;-60
2022/03/13 05:36:23;;;;;;;18.90;11.98;;;4.80;99.90;;;;;;5023012;28;20102;-60
2022/03/13 05:38:49;;;;;;;20.60;13.05;;;4.90;99.90;;;;;;5045373;28;20095;-60
2022/03/13 05:41:14;;;;;;;18.58;12.18;;;4.90;99.90;;;;;;5027222;28;20056;-60
2022/03/13 05:43:42;;;;;;;17.23;13.40;;;4.80;99.90;;;;;;5042036;28;20045;-60
2022/03/13 05:46:08;;;;;;;20.13;11.32;;;4.70;99.90;;;;;;5021905;28;20540;-60
2022/03/13 05:48:34;;;;;;;16.77;11.77;;;4.70;99.90;;;;;;5037536;28;20044;-60
2022/03/13 05:50:59;;;;;;;18.27;12.35;;;4.70;99.90;;;;;;5022846;28;20045;-60
2022/03/13 05:53:25;;;;;;;14.85;11.98;;;4.70;99.90;;;;;;5043254;28;20033;-59
2022/03/13 05:55:51;;;;;;;15.52;10.60;;;4.50;99.90;;;;;;5016411;28;20049;-60
2022/03/13 05:58:17;;;;;;;20.42;13.55;;;4.30;99.90;;;;;;5044588;28;20055;-60
2022/03/13 06:00:43;;;;;;;15.77;11.50;;;4.20;99.90;;;;;;5044421;28;20033;-60
2022/03/13 06:03:09;;;;;;;15.07;11.25;;;4.20;99.90;;;;;;5036295;28;20075;-60
2022/03/13 06:05:35;;;;;;;14.82;11.27;;;4.20;99.90;;;;;;5042697;28;20056;-60
2022/03/13 06:08:00;;;;;;;18.88;11.60;;;4.30;99.90;;;;;;5024075;28;20060;-62
2022/03/13 06:10:26;;;;;;;14.50;10.57;;;4.40;99.90;;;;;;5035359;28;20041;-61
2022/03/13 06:12:52;;;;;;;18.38;12.68;;;4.50;99.90;;;;;;5033859;28;20139;-61
2022/03/13 06:15:18;;;;;;;17.23;11.00;;;4.50;99.90;;;;;;5042470;28;20032;-60
2022/03/13 06:17:46;;;;;;;16.05;11.07;;;4.50;99.90;;;;;;5026459;28;20076;-60
2022/03/13 06:20:13;;;;;;;15.63;10.75;;;4.80;99.90;;;;;;5044619;28;20575;-60
2022/03/13 06:22:40;;;;;;;18.63;11.32;;;4.90;99.90;;;;;;5048571;28;20044;-60
2022/03/13 06:25:08;;;;;;;16.27;11.05;;;5.00;99.90;;;;;;5042634;28;20044;-60
2022/03/13 06:27:34;;;;;;;19.30;11.02;;;5.10;99.90;;;;;;5015802;28;20037;-60
2022/03/13 06:30:01;;;;;;;17.60;11.40;;;5.20;99.90;;;;;;5042644;28;21917;-61
2022/03/13 06:32:27;;;;;;;17.52;10.20;;;5.30;99.90;;;;;;5013569;28;20485;-60
2022/03/13 06:34:53;;;;;;;14.57;9.95;;;5.30;99.90;;;;;;5026514;28;20059;-60
2022/03/13 06:37:19;;;;;;;17.83;10.95;;;5.40;99.90;;;;;;5020755;28;20041;-60
2022/03/13 06:39:44;;;;;;;16.10;10.68;;;5.40;99.90;;;;;;5025196;28;20128;-60
2022/03/13 06:42:10;;;;;;;17.83;12.02;;;5.50;99.90;;;;;;5024853;28;20055;-59
2022/03/13 06:44:36;;;;;;;17.13;11.45;;;5.50;99.90;;;;;;5024307;28;20137;-60
2022/03/13 06:47:02;;;;;;;19.30;9.93;;;5.50;99.90;;;;;;5005149;28;20401;-60
2022/03/13 06:49:28;;;;;;;13.32;10.50;;;5.60;99.90;;;;;;5016624;28;20103;-60
2022/03/13 06:51:53;;;;;;;13.68;9.90;;;5.60;99.90;;;;;;5021901;28;20056;-60
2022/03/13 06:54:19;;;;;;;14.52;10.18;;;5.70;99.90;;;;;;4994747;28;20592;-60
2022/03/13 06:56:48;;;;;;;18.35;10.43;;;5.70;99.90;;;;;;5022590;28;20583;-60
2022/03/13 06:59:13;;;;;;;14.52;9.93;;;5.70;99.90;;;;;;5022071;28;20043;-60
2022/03/13 07:01:39;;;;;;;12.02;9.70;;;5.80;99.90;;;;;;5001444;28;20057;-60
2022/03/13 07:04:05;;;;;;;17.33;10.05;;;5.80;99.90;;;;;;5019585;28;20049;-61
2022/03/13 07:06:32;;;;;;;13.23;9.10;;;5.80;99.90;;;;;;5006051;28;20118;-60
2022/03/13 07:08:59;;;;;;;16.60;10.00;;;5.70;99.90;;;;;;5000141;28;20056;-60
2022/03/13 07:11:26;;;;;;;16.10;11.75;;;5.80;99.90;;;;;;5023644;28;20045;-60
2022/03/13 07:13:51;;;;;;;15.82;10.30;;;5.80;99.90;;;;;;5021737;28;20068;-59
2022/03/13 07:16:17;;;;;;;17.38;10.68;;;5.90;99.90;;;;;;5022691;28;20076;-60
2022/03/13 07:18:43;;;;;;;15.05;10.93;;;5.90;99.90;;;;;;5000481;28;20052;-60
2022/03/13 07:21:10;;;;;;;14.07;10.50;;;5.90;99.90;;;;;;5019488;28;20149;-61
2022/03/13 07:23:36;;;;;;;14.70;10.75;;;6.00;99.90;;;;;;5022083;28;20045;-60
2022/03/13 07:26:01;;;;;;;14.95;10.27;;;6.00;99.90;;;;;;5019427;28;20049;-59
2022/03/13 07:28:28;;;;;;;18.73;11.02;;;6.10;99.90;;;;;;5024317;28;20045;-59
2022/03/13 07:30:54;;;;;;;16.33;9.95;;;6.10;99.90;;;;;;5022200;28;20059;-59
2022/03/13 07:33:20;;;;;;;13.93;10.25;;;6.20;99.90;;;;;;5032494;28;20557;-61
2022/03/13 07:35:45;;;;;;;13.27;11.27;;;6.30;99.90;;;;;;5040979;28;20048;-61
2022/03/13 07:38:11;;;;;;;14.73;9.63;;;6.40;99.90;;;;;;5042476;28;20041;-61
2022/03/13 07:40:37;;;;;;;13.98;9.48;;;6.40;99.90;;;;;;5039659;28;20067;-61
2022/03/13 07:43:03;;;;;;;14.13;10.48;;;6.50;99.90;;;;;;5041577;28;20052;-61
2022/03/13 07:45:29;;;;;;;16.38;9.95;;;6.60;99.90;;;;;;5025646;28;20574;-61
2022/03/13 07:47:57;;;;;;;14.95;9.82;;;6.60;99.90;;;;;;5046389;28;20564;-61
2022/03/13 07:50:23;;;;;;;15.18;10.07;;;6.70;99.90;;;;;;5015846;28;20048;-61
2022/03/13 07:52:50;;;;;;;15.15;10.57;;;6.90;99.90;;;;;;5033133;28;20076;-59
2022/03/13 07:55:16;;;;;;;16.10;10.30;;;7.10;99.90;;;;;;5054224;28;20308;-60
2022/03/13 07:57:42;;;;;;;16.50;10.50;;;7.40;99.90;;;;;;5054859;28;20040;-60
2022/03/13 08:00:08;;;;;;;14.77;9.40;;;7.70;99.90;;;;;;5054673;28;20133;-61
2022/03/13 08:02:36;;;;;;;10.48;8.82;;;7.90;99.90;;;;;;5054229;28;20400;-61
2022/03/13 08:05:02;;;;;;;14.50;10.00;;;8.20;99.90;;;;;;5054809;28;20044;-60
2022/03/13 08:07:27;;;;;;;12.63;9.82;;;8.50;99.90;;;;;;5050371;28;20073;-61
2022/03/13 08:09:53;;;;;;;17.35;11.73;;;8.70;99.90;;;;;;5033311;28;20865;-59
2022/03/13 08:12:19;;;;;;;14.35;9.75;;;8.90;99.90;;;;;;5034301;28;20044;-59
2022/03/13 08:14:50;;;;;;;14.90;10.48;;;9.10;99.90;;;;;;5034979;28;20164;-60
2022/03/13 08:17:15;;;;;;;14.05;9.32;;;9.20;99.90;;;;;;5034531;28;20049;-60
2022/03/13 08:19:41;;;;;;;24.88;11.00;;;9.20;99.90;;;;;;5016586;28;20047;-60
2022/03/13 08:22:07;;;;;;;10.88;9.00;;;9.30;99.90;;;;;;5034102;28;20562;-59
2022/03/13 08:24:32;;;;;;;11.77;9.77;;;9.40;99.90;;;;;;5033570;28;20059;-60
2022/03/13 08:26:58;;;;;;;14.25;9.20;;;9.60;99.20;;;;;;5016338;28;20057;-59
2022/03/13 08:29:24;;;;;;;12.52;9.23;;;9.90;99.10;;;;;;5034712;28;20499;-60
2022/03/13 08:31:49;;;;;;;15.38;9.85;;;10.00;98.40;;;;;;5016329;28;20144;-60
2022/03/13 08:34:15;;;;;;;13.00;9.52;;;10.10;97.80;;;;;;5034856;28;20055;-60
2022/03/13 08:36:47;;;;;;;13.15;8.80;;;10.00;97.20;;;;;;5015724;28;20167;-60
2022/03/13 08:39:13;;;;;;;13.48;10.02;;;10.00;97.10;;;;;;5048060;28;20059;-59
2022/03/13 08:41:39;;;;;;;11.63;8.38;;;10.20;96.90;;;;;;5052083;28;20044;-60
2022/03/13 08:44:05;;;;;;;13.43;9.13;;;10.70;96.60;;;;;;5040829;28;20059;-59
2022/03/13 08:46:30;;;;;;;13.77;9.15;;;11.10;95.30;;;;;;5040038;28;20072;-60
2022/03/13 08:48:56;;;;;;;13.38;8.75;;;11.30;94.90;;;;;;5040214;28;20198;-60
2022/03/13 08:51:23;;;;;;;15.57;9.93;;;11.60;94.90;;;;;;5020160;28;20598;-60
2022/03/13 08:53:50;;;;;;;12.68;9.65;;;12.20;94.10;;;;;;5034394;28;20037;-60
2022/03/13 08:56:16;;;;;;;12.80;9.57;;;12.80;93.00;;;;;;5036447;28;20049;-59
2022/03/13 08:58:42;;;;;;;12.38;9.63;;;13.50;91.90;;;;;;5036392;28;20079;-59
2022/03/13 09:01:09;;;;;;;11.73;9.07;;;14.30;90.50;;;;;;5031190;28;20037;-59
2022/03/13 09:03:35;;;;;;;10.60;9.20;;;15.20;88.40;;;;;;5037263;28;20580;-59
2022/03/13 09:06:13;;;;;;;15.54;10.00;;;15.30;84.60;;;;;;4997066;28;10000963;-60
2022/03/13 09:08:39;;;;;;;10.30;8.77;;;14.70;82.50;;;;;;4674025;28;9999720;-59
2022/03/13 09:11:04;;;;;;;12.32;9.48;;;14.30;83.00;;;;;;5033969;28;20045;-59
2022/03/13 09:13:30;;;;;;;15.10;9.88;;;14.00;83.30;;;;;;5015970;28;20061;-60
2022/03/13 09:15:56;;;;;;;15.15;9.25;;;14.00;84.70;;;;;;5032659;28;20956;-59
2022/03/13 09:18:22;;;;;;;12.27;9.10;;;14.40;84.70;;;;;;5033704;28;20051;-60
2022/03/13 09:20:48;;;;;;;11.43;9.90;;;15.10;80.00;;;;;;5033289;28;20041;-60
2022/03/13 09:23:13;;;;;;;16.52;9.98;;;15.70;78.60;;;;;;5016375;28;20075;-60
2022/03/13 09:25:39;;;;;;;13.85;9.32;;;16.20;75.40;;;;;;5034257;28;20100;-60
2022/03/13 09:28:05;;;;;;;13.55;9.77;;;16.50;72.40;;;;;;5031703;28;20841;-60
2022/03/13 09:30:30;;;;;;;11.02;9.52;;;16.50;66.90;;;;;;5030583;28;20726;-61
2022/03/13 09:32:56;;;;;;;13.35;8.48;;;16.60;65.90;;;;;;5035114;28;20069;-60
2022/03/13 09:35:22;;;;;;;12.60;9.85;;;17.00;65.90;;;;;;5034509;28;20119;-60
2022/03/13 09:37:51;;;;;;;14.23;9.18;;;17.40;65.10;;;;;;5032784;28;20048;-60
2022/03/13 09:40:17;;;;;;;10.45;9.35;;;17.60;63.70;;;;;;5038020;28;20055;-60
2022/03/13 09:42:44;;;;;;;13.10;10.88;;;17.80;61.60;;;;;;5033960;28;20060;-60
2022/03/13 09:45:11;;;;;;;15.48;9.50;;;17.80;60.40;;;;;;5040225;28;20632;-59
2022/03/13 09:47:37;;;;;;;12.75;9.75;;;18.00;60.10;;;;;;5033047;28;20055;-60
2022/03/13 09:50:05;;;;;;;11.75;8.20;;;18.50;59.90;;;;;;5039307;28;20070;-59
2022/03/13 09:52:33;;;;;;;14.77;9.68;;;19.10;59.30;;;;;;5019327;28;20561;-60
2022/03/13 09:54:59;;;;;;;12.70;10.13;;;19.50;57.90;;;;;;5036313;28;20484;-59
2022/03/13 09:57:24;;;;;;;12.85;9.80;;;19.50;56.60;;;;;;5034388;28;20080;-60
2022/03/13 09:59:50;;;;;;;14.75;9.55;;;19.70;55.90;;;;;;5035200;28;20583;-59
2022/03/13 10:02:16;;;;;;;12.30;9.95;;;19.70;55.50;;;;;;5035497;28;20054;-60
2022/03/13 10:04:41;;;;;;;14.73;9.70;;;19.90;55.10;;;;;;5035902;28;20116;-60
2022/03/13 10:07:11;;;;;;;13.07;9.55;;;19.90;54.40;;;;;;5038496;28;20051;-60
2022/03/13 10:09:40;;;;;;;13.20;9.80;;;20.00;53.20;;;;;;5021334;28;20094;-61
2022/03/13 10:12:09;;;;;;;13.27;9.60;;;20.10;53.40;;;;;;5037887;28;20107;-61
2022/03/13 10:14:55;;;;;;;14.30;9.98;;;19.90;51.90;;;;;;5041695;28;20044;-61
2022/03/13 10:17:32;;;;;;;11.15;9.27;;;19.90;52.20;;;;;;5043654;28;20055;-60
2022/03/13 10:20:14;;;;;;;12.45;9.57;;;19.90;51.90;;;;;;5032705;28;20465;-61
2022/03/13 10:22:41;;;;;;;14.30;9.97;;;20.00;51.70;;;;;;5037079;28;20051;-61
2022/03/13 10:25:07;;;;;;;14.73;10.80;;;19.60;52.20;;;;;;4691439;28;10000603;-61
2022/03/13 10:27:33;;;;;;;13.63;9.57;;;19.50;52.30;;;;;;5036422;28;20036;-61
2022/03/13 10:30:06;;;;;;;12.05;9.48;;;19.80;52.90;;;;;;5034387;28;20049;-61
2022/03/13 10:32:32;;;;;;;13.07;9.13;;;20.20;52.00;;;;;;5034795;28;20061;-60
2022/03/13 10:34:58;;;;;;;15.85;10.45;;;20.50;52.00;;;;;;5036753;28;20049;-60
2022/03/13 10:37:43;;;;;;;12.15;9.50;;;20.90;51.50;;;;;;5041594;28;20050;-61
2022/03/13 10:40:21;;;;;;;13.88;10.68;;;21.10;50.00;;;;;;5040187;28;20048;-61
2022/03/13 10:42:48;;;;;;;14.15;10.35;;;21.50;50.60;;;;;;5025349;28;20739;-61
2022/03/13 10:45:37;;;;;;;15.38;11.07;;;21.10;49.80;;;;;;5034754;28;20048;-60
2022/03/13 10:48:28;;;;;;;13.10;10.38;;;20.70;49.80;;;;;;5048119;28;20045;-61
2022/03/13 10:50:56;;;;;;;13.40;9.95;;;20.30;49.50;;;;;;5041025;28;20049;-61
2022/03/13 10:53:22;;;;;;;13.90;9.80;;;19.60;50.60;;;;;;5037693;28;20043;-61
2022/03/13 10:56:07;;;;;;;13.25;9.63;;;19.00;50.60;;;;;;5019294;28;20152;-60
2022/03/13 10:58:35;;;;;;;12.20;10.45;;;18.10;51.10;;;;;;5038781;28;20103;-61
2022/03/13 11:01:32;;;;;;;12.32;10.25;;;17.40;52.20;;;;;;5048660;28;20044;-60
2022/03/13 11:04:06;;;;;;;13.95;10.73;;;16.80;52.50;;;;;;5037976;28;20061;-60
2022/03/13 11:06:32;;;;;;;13.55;10.57;;;16.30;52.80;;;;;;5038074;28;20508;-60
2022/03/13 11:08:59;;;;;;;15.48;10.75;;;15.90;53.30;;;;;;5023226;28;20514;-60
2022/03/13 11:11:28;;;;;;;16.30;11.20;;;15.70;53.50;;;;;;5039357;28;20110;-60
2022/03/13 11:13:59;;;;;;;15.07;10.30;;;15.70;54.00;;;;;;5038671;28;20143;-61
2022/03/13 11:16:30;;;;;;;13.60;10.68;;;15.70;54.30;;;;;;5021825;28;20800;-60
2022/03/13 11:19:01;;;;;;;16.77;10.63;;;15.60;54.20;;;;;;5047133;28;20604;-61
2022/03/13 11:21:27;;;;;;;11.98;8.98;;;15.60;54.10;;;;;;5046995;28;20044;-60
2022/03/13 11:23:54;;;;;;;12.45;9.82;;;15.60;53.90;;;;;;5035434;28;20168;-60
2022/03/13 11:26:23;;;;;;;12.15;9.13;;;15.50;54.00;;;;;;5044193;28;20040;-60
2022/03/13 11:28:49;;;;;;;15.68;10.70;;;15.50;54.10;;;;;;5037608;28;20045;-61
2022/03/13 11:31:35;;;;;;;12.88;9.52;;;15.50;53.80;;;;;;5037169;28;20062;-61
2022/03/13 11:34:18;;;;;;;13.23;9.38;;;15.60;53.70;;;;;;5019834;28;20833;-61
2022/03/13 11:36:50;;;;;;;;;;;15.40;53.60;;;;;;5037397;28;20059;-61
2022/03/13 11:39:36;;;;;;;16.45;10.85;;;15.40;53.70;;;;;;5054022;28;20141;-60
2022/03/13 11:42:03;;;;;;;15.85;10.20;;;15.50;53.90;;;;;;5054824;28;20559;-60
2022/03/13 11:44:30;;;;;;;11.85;9.07;;;15.50;53.40;;;;;;5055391;28;20131;-60
2022/03/13 11:46:58;;;;;;;14.98;10.30;;;15.60;53.60;;;;;;5055994;28;20126;-61
2022/03/13 11:49:26;;;;;;;12.07;8.23;;;15.70;53.80;;;;;;5055296;28;20037;-62
2022/03/13 11:52:18;;;;;;;11.27;9.27;;;15.80;53.60;;;;;;5056247;28;20047;-60
2022/03/13 11:54:46;;;;;;;14.60;10.10;;;15.90;53.60;;;;;;5055642;28;20054;-62
2022/03/13 11:57:18;;;;;;;12.27;8.80;;;15.90;53.70;;;;;;5057045;28;20507;-60
2022/03/13 11:59:48;;;;;;;15.32;9.70;;;15.90;53.80;;;;;;5039305;28;20055;-60
2022/03/13 12:02:40;;;;;;;14.75;9.80;;;15.90;53.80;;;;;;5057056;28;20048;-60
2022/03/13 12:05:34;;;;;;;15.60;11.05;;;15.80;53.70;;;;;;5057348;28;20041;-59
2022/03/13 12:08:08;;;;;;;10.70;9.52;;;15.80;53.20;;;;;;5035463;28;20057;-60
2022/03/13 12:10:41;;;;;;;14.20;9.82;;;15.90;53.00;;;;;;5056926;28;20044;-62
2022/03/13 12:13:12;;;;;;;12.20;9.82;;;15.90;53.30;;;;;;5057509;28;20053;-61
2022/03/13 12:15:42;;;;;;;10.13;9.05;;;15.90;53.50;;;;;;5056469;28;20444;-60
2022/03/13 12:18:32;;;;;;;13.40;9.98;;;16.00;53.50;;;;;;5057229;28;20128;-62
2022/03/13 12:21:10;;;;;;;13.18;10.63;;;15.90;52.90;;;;;;5039197;28;20058;-59
2022/03/13 12:23:39;;;;;;;14.48;8.88;;;15.80;52.90;;;;;;5056368;28;20056;-60
2022/03/13 12:26:34;;;;;;;15.05;11.05;;;15.80;53.60;;;;;;5056644;28;20049;-60
2022/03/13 12:28:59;;;;;;;11.95;10.55;;;15.70;52.60;;;;;;5056559;28;20048;-61
2022/03/13 12:31:25;;;;;;;13.20;9.43;;;15.70;52.80;;;;;;5056151;28;20041;-61
2022/03/13 12:33:58;;;;;;;14.68;10.30;;;15.70;52.50;;;;;;5056289;28;20064;-60
2022/03/13 12:36:37;;;;;;;15.15;10.98;;;15.60;52.40;;;;;;5056608;28;20143;-62
2022/03/13 12:39:14;;;;;;;10.70;9.55;;;15.60;52.90;;;;;;5056331;28;20056;-61
2022/03/13 12:41:44;;;;;;;12.00;8.77;;;15.60;52.40;;;;;;5038571;28;20062;-61